createdAt,value
2018-09-11T00:07:12.801Z,44.7
2018-09-11T00:12:20.871Z,45
2018-09-11T00:17:28.483Z,44.6
2018-09-11T00:22:36.416Z,45.1
2018-09-11T00:27:44.252Z,45
2018-09-11T00:32:52.076Z,45
2018-09-11T00:37:59.869Z,45.5
2018-09-11T00:43:07.704Z,45.9
2018-09-11T00:48:15.548Z,46.1
2018-09-11T00:53:23.496Z,46.6
2018-09-11T00:58:31.282Z,46.4
2018-09-11T01:03:39.167Z,46.6
2018-09-11T01:08:47.056Z,46.8
2018-09-11T01:13:55.600Z,46.8
2018-09-11T01:19:02.827Z,47.1
2018-09-11T01:24:10.740Z,47.5
2018-09-11T01:29:18.810Z,47.5
2018-09-11T01:34:26.643Z,47.8
2018-09-11T01:39:34.578Z,47.7
2018-09-11T01:49:50.376Z,47.8
2018-09-11T01:54:58.337Z,49.1
2018-09-11T02:00:06.325Z,49.3
2018-09-11T02:05:14.203Z,49.1
2018-09-11T02:10:22.149Z,49.4
2018-09-11T02:15:30.054Z,49.1
2018-09-11T02:20:38.395Z,48.7
2018-09-11T02:25:45.925Z,48.8
2018-09-11T02:30:53.813Z,49.1
2018-09-11T02:36:01.921Z,48.5
2018-09-11T02:41:09.757Z,49.1
2018-09-11T02:46:17.746Z,49.8
2018-09-11T02:51:25.720Z,49.6
2018-09-11T02:56:33.572Z,49.4
2018-09-11T03:01:41.519Z,49.8
2018-09-11T03:06:49.501Z,49.9
2018-09-11T03:11:57.449Z,51.1
2018-09-11T03:17:05.297Z,50
2018-09-11T03:22:13.198Z,50.1
2018-09-11T03:27:21.144Z,50.3
2018-09-11T03:32:29.191Z,49.9
2018-09-11T03:37:36.984Z,50
2018-09-11T03:42:44.907Z,49.8
2018-09-11T03:47:52.818Z,49.9
2018-09-11T03:53:00.755Z,50.2
2018-09-11T03:58:08.668Z,50.5
2018-09-11T04:03:16.545Z,50.9
2018-09-11T04:08:24.457Z,51.1
2018-09-11T04:13:32.608Z,50.8
2018-09-11T04:18:40.253Z,50.5
2018-09-11T04:23:48.086Z,50
2018-09-11T04:28:55.963Z,50
2018-09-11T04:39:11.702Z,50
2018-09-11T04:44:19.745Z,49.9
2018-09-11T04:49:27.441Z,49.5
2018-09-11T04:54:35.351Z,49.5
2018-09-11T04:59:43.145Z,49.5
2018-09-11T05:04:51.400Z,49.4
2018-09-11T05:15:11.204Z,49.5
2018-09-11T05:20:14.708Z,49.5
2018-09-11T05:25:22.476Z,49.8
2018-09-11T05:30:30.302Z,49.6
2018-09-11T05:40:46.024Z,49
2018-09-11T05:45:53.824Z,49.1
2018-09-11T05:51:01.639Z,48.1
2018-09-11T06:01:17.261Z,47.3
2018-09-11T06:06:24.986Z,46.7
2018-09-11T06:11:32.651Z,46.4
2018-09-11T06:21:48.007Z,44.7
2018-09-11T06:26:55.656Z,44.7
2018-09-11T06:37:11.022Z,44.3
2018-09-11T06:42:18.755Z,43.1
2018-09-11T06:57:41.030Z,42.7
2018-09-11T07:02:48.534Z,43.4
2018-09-11T07:07:55.953Z,42.4
2018-09-11T07:13:03.493Z,41.9
2018-09-11T07:23:18.109Z,40.9
2018-09-11T07:28:25.461Z,41.2
2018-09-11T07:33:32.694Z,40.1
2018-09-11T07:48:54.274Z,38.1
2018-09-11T07:54:01.482Z,38.3
2018-09-11T08:09:22.863Z,37.3
2018-09-11T08:14:29.964Z,37.4
2018-09-11T08:29:51.299Z,37.3
2018-09-11T09:00:34.443Z,35.8
2018-09-11T09:05:41.601Z,35.6
2018-09-11T09:26:10.324Z,32.8
2018-09-11T09:31:17.561Z,33.3
2018-09-11T09:46:38.709Z,32.8
2018-09-11T09:51:45.674Z,32
2018-09-11T09:56:52.874Z,32.3
2018-09-11T10:02:00.282Z,31.7
2018-09-11T10:07:06.484Z,30.6
2018-09-11T10:27:33.503Z,29.9
2018-09-11T10:37:46.908Z,28.7
2018-09-11T10:58:13.348Z,28
2018-09-11T11:03:20.073Z,27
2018-09-11T11:08:26.878Z,26.6
2018-09-11T11:18:39.637Z,24.1
2018-09-11T11:23:46.318Z,24.9
2018-09-11T11:33:59.364Z,24.4
2018-09-11T11:39:06.058Z,24.2
2018-09-11T11:54:25.704Z,23.9
2018-09-11T12:09:45.480Z,24.1
2018-09-11T12:14:56.280Z,23
2018-09-11T12:19:58.680Z,22.9
2018-09-11T12:25:05.291Z,22.7
2018-09-11T12:30:11.887Z,22.5
2018-09-11T12:35:18.507Z,22.4
2018-09-11T12:45:31.815Z,21.4
2018-09-11T12:50:38.573Z,21.4
2018-09-11T12:55:45.137Z,20.5
2018-09-11T13:05:58.534Z,21.3
2018-09-11T13:21:18.759Z,22.1
2018-09-11T13:26:25.557Z,21.9
2018-09-11T13:51:59.571Z,23.3
2018-09-11T13:57:06.223Z,22.4
2018-09-11T14:02:13.061Z,23.4
2018-09-11T14:12:26.869Z,23.9
2018-09-11T14:27:47.853Z,24.8
2018-09-11T14:32:54.760Z,25.2
2018-09-11T14:38:01.737Z,24.8
2018-09-11T14:43:08.755Z,25.8
2018-09-11T14:48:15.765Z,25.6
2018-09-11T14:53:22.852Z,25.2
2018-09-11T15:03:37.039Z,25.9
2018-09-11T15:13:51.424Z,26
2018-09-11T15:18:58.437Z,26.6
2018-09-11T15:29:12.390Z,26.5
2018-09-11T15:44:33.659Z,27.2
2018-09-11T15:59:54.989Z,27.5
2018-09-11T16:05:02.021Z,27.1
2018-09-11T16:10:09.080Z,27.4
2018-09-11T16:20:23.454Z,27.4
2018-09-11T16:25:30.260Z,27.1
2018-09-11T16:30:37.347Z,27.1
2018-09-11T16:35:44.395Z,27.1
2018-09-11T16:40:51.501Z,27.4
2018-09-11T16:45:58.619Z,27
2018-09-11T16:51:05.706Z,27.2
2018-09-11T16:56:12.788Z,26.6
2018-09-11T17:01:19.898Z,27.3
2018-09-11T17:11:34.335Z,27.4
2018-09-11T17:16:41.223Z,27.2
2018-09-11T17:21:48.413Z,27.4
2018-09-11T17:26:55.608Z,27.8
2018-09-11T17:37:09.821Z,28.1
2018-09-11T17:42:17.053Z,27.8
2018-09-11T17:47:24.318Z,27.8
2018-09-11T17:57:38.786Z,28.5
2018-09-11T18:02:45.757Z,27.6
2018-09-11T18:07:53.074Z,28.8
2018-09-11T18:13:00.321Z,28.9
2018-09-11T18:18:07.415Z,28.4
2018-09-11T18:23:14.626Z,28.2
2018-09-11T18:28:21.825Z,28.4
2018-09-11T18:33:29.056Z,28.4
2018-09-11T18:38:36.455Z,28
2018-09-11T18:43:43.668Z,28.4
2018-09-11T18:53:58.207Z,28.5
2018-09-11T18:59:05.584Z,28.2
2018-09-11T19:04:12.815Z,28.7
2018-09-11T19:09:20.122Z,29.2
2018-09-11T19:14:27.523Z,29.8
2018-09-11T19:19:34.838Z,29.7
2018-09-11T19:24:42.085Z,29.2
2018-09-11T19:29:49.435Z,30.5
2018-09-11T19:34:56.764Z,30
2018-09-11T19:40:04.687Z,30.8
2018-09-11T19:45:11.561Z,31.1
2018-09-11T19:50:18.883Z,31.5
2018-09-11T19:55:26.192Z,31.6
2018-09-11T20:00:33.589Z,31.5
2018-09-11T20:05:41.103Z,31.5
2018-09-11T20:10:48.414Z,31.3
2018-09-11T20:15:55.896Z,32.3
2018-09-11T20:21:03.344Z,32.1
2018-09-11T20:26:10.723Z,32.2
2018-09-11T20:41:33.108Z,31.9
2018-09-11T20:46:40.547Z,32.7
2018-09-11T20:51:48.091Z,32.8
2018-09-11T21:07:10.482Z,33.1
2018-09-11T21:12:18.091Z,33.4
2018-09-11T21:22:33.070Z,33.6
2018-09-11T21:27:40.516Z,33.3
2018-09-11T21:32:48.063Z,32.9
2018-09-11T21:37:55.558Z,33.5
2018-09-11T21:43:03.096Z,33.7
2018-09-11T21:48:10.628Z,33.5
2018-09-11T21:53:18.127Z,33.7
2018-09-11T21:58:25.651Z,33.4
2018-09-11T22:03:33.245Z,33.4
2018-09-11T22:08:40.747Z,33.7
2018-09-11T22:24:03.497Z,34
2018-09-11T22:29:10.920Z,34.1
2018-09-11T22:34:18.459Z,34
2018-09-11T22:39:25.986Z,34.2
2018-09-11T22:44:33.529Z,34.2
2018-09-11T22:49:41.081Z,34.4
2018-09-11T22:54:48.638Z,34.5
2018-09-11T23:05:03.849Z,34.3
2018-09-11T23:10:11.314Z,35.1
2018-09-11T23:15:18.881Z,35.2
2018-09-11T23:25:36.779Z,35
2018-09-11T23:30:41.686Z,35.1
2018-09-11T23:35:49.269Z,35.1
2018-09-11T23:40:56.845Z,35
2018-09-11T23:46:04.595Z,35.2
2018-09-11T23:51:12.081Z,35.9
